sensor_id;sensor_type;location;lat;lon;timestamp;P1;durP1;ratioP1;P2;durP2;ratioP2
43626;SDS011;29217;52.586;13.442;2024-02-28T00:02:19;21.67;;;7.15;;
43626;SDS011;29217;52.586;13.442;2024-02-28T00:04:44;24.13;;;7.53;;
43626;SDS011;29217;52.586;13.442;2024-02-28T00:07:10;18.33;;;6.72;;
43626;SDS011;29217;52.586;13.442;2024-02-28T00:09:35;19.95;;;7.28;;
43626;SDS011;29217;52.586;13.442;2024-02-28T00:12:01;16.63;;;7.28;;
43626;SDS011;29217;52.586;13.442;2024-02-28T00:14:26;20.17;;;7.13;;
43626;SDS011;29217;52.586;13.442;2024-02-28T00:16:52;26.25;;;8.65;;
43626;SDS011;29217;52.586;13.442;2024-02-28T00:19:18;27.65;;;8.00;;
43626;SDS011;29217;52.586;13.442;2024-02-28T00:21:45;29.10;;;8.10;;
43626;SDS011;29217;52.586;13.442;2024-02-28T00:24:10;24.20;;;7.82;;
43626;SDS011;29217;52.586;13.442;2024-02-28T00:26:37;25.98;;;7.65;;
43626;SDS011;29217;52.586;13.442;2024-02-28T00:29:07;21.20;;;7.80;;
43626;SDS011;29217;52.586;13.442;2024-02-28T00:31:32;25.00;;;7.47;;
43626;SDS011;29217;52.586;13.442;2024-02-28T00:33:58;23.17;;;7.65;;
43626;SDS011;29217;52.586;13.442;2024-02-28T00:36:23;17.50;;;7.28;;
43626;SDS011;29217;52.586;13.442;2024-02-28T00:38:49;25.77;;;8.10;;
43626;SDS011;29217;52.586;13.442;2024-02-28T00:41:15;23.52;;;7.60;;
43626;SDS011;29217;52.586;13.442;2024-02-28T00:43:40;22.20;;;7.45;;
43626;SDS011;29217;52.586;13.442;2024-02-28T00:46:06;17.02;;;7.40;;
43626;SDS011;29217;52.586;13.442;2024-02-28T00:48:36;21.20;;;7.35;;
43626;SDS011;29217;52.586;13.442;2024-02-28T00:51:02;20.85;;;7.80;;
43626;SDS011;29217;52.586;13.442;2024-02-28T00:53:28;27.98;;;7.65;;
43626;SDS011;29217;52.586;13.442;2024-02-28T00:55:53;20.45;;;7.22;;
43626;SDS011;29217;52.586;13.442;2024-02-28T00:58:20;17.88;;;7.25;;
43626;SDS011;29217;52.586;13.442;2024-02-28T01:00:46;20.30;;;7.38;;
43626;SDS011;29217;52.586;13.442;2024-02-28T01:03:15;23.77;;;8.30;;
43626;SDS011;29217;52.586;13.442;2024-02-28T01:05:41;20.05;;;6.53;;
43626;SDS011;29217;52.586;13.442;2024-02-28T01:08:07;26.20;;;7.22;;
43626;SDS011;29217;52.586;13.442;2024-02-28T01:10:33;20.88;;;6.95;;
43626;SDS011;29217;52.586;13.442;2024-02-28T01:12:59;20.88;;;7.55;;
43626;SDS011;29217;52.586;13.442;2024-02-28T01:15:24;18.45;;;6.57;;
43626;SDS011;29217;52.586;13.442;2024-02-28T01:17:50;19.90;;;7.07;;
43626;SDS011;29217;52.586;13.442;2024-02-28T01:20:16;22.45;;;7.05;;
43626;SDS011;29217;52.586;13.442;2024-02-28T01:22:41;18.58;;;7.43;;
43626;SDS011;29217;52.586;13.442;2024-02-28T01:25:07;18.55;;;7.00;;
43626;SDS011;29217;52.586;13.442;2024-02-28T01:27:33;16.42;;;7.13;;
43626;SDS011;29217;52.586;13.442;2024-02-28T01:30:00;20.67;;;6.97;;
43626;SDS011;29217;52.586;13.442;2024-02-28T01:32:26;32.83;;;8.32;;
43626;SDS011;29217;52.586;13.442;2024-02-28T01:34:51;22.17;;;6.70;;
43626;SDS011;29217;52.586;13.442;2024-02-28T01:37:17;19.13;;;7.03;;
43626;SDS011;29217;52.586;13.442;2024-02-28T01:39:42;21.20;;;6.65;;
43626;SDS011;29217;52.586;13.442;2024-02-28T01:42:08;18.95;;;6.40;;
43626;SDS011;29217;52.586;13.442;2024-02-28T01:44:35;22.90;;;7.25;;
43626;SDS011;29217;52.586;13.442;2024-02-28T01:47:06;19.70;;;6.65;;
43626;SDS011;29217;52.586;13.442;2024-02-28T01:49:31;16.83;;;6.53;;
43626;SDS011;29217;52.586;13.442;2024-02-28T01:51:57;21.08;;;7.53;;
43626;SDS011;29217;52.586;13.442;2024-02-28T01:54:23;22.38;;;7.30;;
43626;SDS011;29217;52.586;13.442;2024-02-28T01:56:49;19.95;;;6.68;;
43626;SDS011;29217;52.586;13.442;2024-02-28T01:59:15;21.15;;;7.13;;
43626;SDS011;29217;52.586;13.442;2024-02-28T02:01:42;24.15;;;7.13;;
43626;SDS011;29217;52.586;13.442;2024-02-28T02:04:08;17.80;;;7.03;;
43626;SDS011;29217;52.586;13.442;2024-02-28T02:06:33;18.02;;;6.90;;
43626;SDS011;29217;52.586;13.442;2024-02-28T02:09:03;16.75;;;5.80;;
43626;SDS011;29217;52.586;13.442;2024-02-28T02:11:29;16.60;;;7.03;;
43626;SDS011;29217;52.586;13.442;2024-02-28T02:13:54;20.70;;;6.97;;
43626;SDS011;29217;52.586;13.442;2024-02-28T02:16:20;21.13;;;6.55;;
43626;SDS011;29217;52.586;13.442;2024-02-28T02:18:52;21.02;;;7.07;;
43626;SDS011;29217;52.586;13.442;2024-02-28T02:21:19;20.45;;;6.80;;
43626;SDS011;29217;52.586;13.442;2024-02-28T02:23:47;17.65;;;6.75;;
43626;SDS011;29217;52.586;13.442;2024-02-28T02:26:13;20.98;;;6.53;;
43626;SDS011;29217;52.586;13.442;2024-02-28T02:28:39;19.30;;;6.63;;
43626;SDS011;29217;52.586;13.442;2024-02-28T02:31:04;15.77;;;6.18;;
43626;SDS011;29217;52.586;13.442;2024-02-28T02:33:30;19.27;;;6.30;;
43626;SDS011;29217;52.586;13.442;2024-02-28T02:35:55;18.08;;;6.57;;
43626;SDS011;29217;52.586;13.442;2024-02-28T02:38:21;15.82;;;6.38;;
43626;SDS011;29217;52.586;13.442;2024-02-28T02:40:50;20.15;;;6.15;;
43626;SDS011;29217;52.586;13.442;2024-02-28T02:43:16;13.48;;;6.25;;
43626;SDS011;29217;52.586;13.442;2024-02-28T02:45:42;13.88;;;5.80;;
43626;SDS011;29217;52.586;13.442;2024-02-28T02:48:08;14.30;;;5.18;;
43626;SDS011;29217;52.586;13.442;2024-02-28T02:50:34;17.40;;;5.72;;
43626;SDS011;29217;52.586;13.442;2024-02-28T02:52:59;13.98;;;5.72;;
43626;SDS011;29217;52.586;13.442;2024-02-28T02:55:25;16.30;;;5.18;;
43626;SDS011;29217;52.586;13.442;2024-02-28T02:57:50;13.57;;;4.57;;
43626;SDS011;29217;52.586;13.442;2024-02-28T03:00:16;19.00;;;5.18;;
43626;SDS011;29217;52.586;13.442;2024-02-28T03:02:42;12.38;;;5.03;;
43626;SDS011;29217;52.586;13.442;2024-02-28T03:05:08;14.90;;;5.47;;
43626;SDS011;29217;52.586;13.442;2024-02-28T03:07:34;12.02;;;4.70;;
43626;SDS011;29217;52.586;13.442;2024-02-28T03:10:00;10.20;;;4.63;;
43626;SDS011;29217;52.586;13.442;2024-02-28T03:12:26;14.30;;;4.60;;
43626;SDS011;29217;52.586;13.442;2024-02-28T03:14:52;10.70;;;4.85;;
43626;SDS011;29217;52.586;13.442;2024-02-28T03:17:17;12.30;;;4.68;;
43626;SDS011;29217;52.586;13.442;2024-02-28T03:19:43;11.15;;;4.13;;
43626;SDS011;29217;52.586;13.442;2024-02-28T03:22:09;8.43;;;3.63;;
43626;SDS011;29217;52.586;13.442;2024-02-28T03:24:34;9.82;;;4.40;;
43626;SDS011;29217;52.586;13.442;2024-02-28T03:27:01;8.60;;;4.22;;
43626;SDS011;29217;52.586;13.442;2024-02-28T03:29:27;10.75;;;4.78;;
43626;SDS011;29217;52.586;13.442;2024-02-28T03:31:53;13.48;;;4.93;;
43626;SDS011;29217;52.586;13.442;2024-02-28T03:34:18;9.93;;;4.55;;
43626;SDS011;29217;52.586;13.442;2024-02-28T03:36:44;11.35;;;4.47;;
43626;SDS011;29217;52.586;13.442;2024-02-28T03:39:10;10.05;;;4.28;;
43626;SDS011;29217;52.586;13.442;2024-02-28T03:41:35;10.88;;;4.63;;
43626;SDS011;29217;52.586;13.442;2024-02-28T03:44:01;9.32;;;4.53;;
43626;SDS011;29217;52.586;13.442;2024-02-28T03:46:27;9.02;;;4.10;;
43626;SDS011;29217;52.586;13.442;2024-02-28T03:48:52;10.02;;;4.20;;
43626;SDS011;29217;52.586;13.442;2024-02-28T03:51:18;7.90;;;4.20;;
43626;SDS011;29217;52.586;13.442;2024-02-28T03:53:43;7.63;;;4.15;;
43626;SDS011;29217;52.586;13.442;2024-02-28T03:56:09;8.60;;;3.95;;
43626;SDS011;29217;52.586;13.442;2024-02-28T03:58:35;12.50;;;4.22;;
43626;SDS011;29217;52.586;13.442;2024-02-28T04:01:00;13.80;;;4.70;;
43626;SDS011;29217;52.586;13.442;2024-02-28T04:03:26;7.95;;;4.20;;
43626;SDS011;29217;52.586;13.442;2024-02-28T04:05:51;10.07;;;4.13;;
43626;SDS011;29217;52.586;13.442;2024-02-28T04:08:17;12.35;;;4.78;;
43626;SDS011;29217;52.586;13.442;2024-02-28T04:10:43;7.53;;;3.50;;
43626;SDS011;29217;52.586;13.442;2024-02-28T04:13:09;20.15;;;8.02;;
43626;SDS011;29217;52.586;13.442;2024-02-28T04:15:34;28.25;;;9.40;;
43626;SDS011;29217;52.586;13.442;2024-02-28T04:18:00;10.73;;;4.80;;
43626;SDS011;29217;52.586;13.442;2024-02-28T04:20:26;16.20;;;6.95;;
43626;SDS011;29217;52.586;13.442;2024-02-28T04:22:51;22.40;;;9.15;;
43626;SDS011;29217;52.586;13.442;2024-02-28T04:25:17;17.95;;;6.88;;
43626;SDS011;29217;52.586;13.442;2024-02-28T04:27:43;11.80;;;5.15;;
43626;SDS011;29217;52.586;13.442;2024-02-28T04:30:09;9.73;;;5.28;;
43626;SDS011;29217;52.586;13.442;2024-02-28T04:32:35;8.73;;;4.40;;
43626;SDS011;29217;52.586;13.442;2024-02-28T04:35:01;9.88;;;3.83;;
43626;SDS011;29217;52.586;13.442;2024-02-28T04:37:28;10.90;;;4.03;;
43626;SDS011;29217;52.586;13.442;2024-02-28T04:39:53;12.02;;;4.20;;
43626;SDS011;29217;52.586;13.442;2024-02-28T04:42:19;10.80;;;4.10;;
43626;SDS011;29217;52.586;13.442;2024-02-28T04:44:45;8.50;;;3.95;;
43626;SDS011;29217;52.586;13.442;2024-02-28T04:47:10;8.52;;;3.75;;
43626;SDS011;29217;52.586;13.442;2024-02-28T04:49:36;7.15;;;3.88;;
43626;SDS011;29217;52.586;13.442;2024-02-28T04:52:03;11.93;;;5.22;;
43626;SDS011;29217;52.586;13.442;2024-02-28T04:54:30;14.85;;;5.03;;
43626;SDS011;29217;52.586;13.442;2024-02-28T04:56:55;7.75;;;3.60;;
43626;SDS011;29217;52.586;13.442;2024-02-28T04:59:21;9.45;;;4.32;;
43626;SDS011;29217;52.586;13.442;2024-02-28T05:01:46;13.73;;;4.97;;
43626;SDS011;29217;52.586;13.442;2024-02-28T05:04:13;12.73;;;4.68;;
43626;SDS011;29217;52.586;13.442;2024-02-28T05:06:38;14.38;;;5.20;;
43626;SDS011;29217;52.586;13.442;2024-02-28T05:09:04;12.13;;;4.82;;
43626;SDS011;29217;52.586;13.442;2024-02-28T05:11:30;8.68;;;4.57;;
43626;SDS011;29217;52.586;13.442;2024-02-28T05:13:55;13.50;;;4.60;;
43626;SDS011;29217;52.586;13.442;2024-02-28T05:16:21;12.50;;;5.70;;
43626;SDS011;29217;52.586;13.442;2024-02-28T05:18:46;17.13;;;6.82;;
43626;SDS011;29217;52.586;13.442;2024-02-28T05:21:13;12.15;;;4.78;;
43626;SDS011;29217;52.586;13.442;2024-02-28T05:23:39;8.30;;;3.70;;
43626;SDS011;29217;52.586;13.442;2024-02-28T05:26:05;16.60;;;6.85;;
43626;SDS011;29217;52.586;13.442;2024-02-28T05:28:35;12.68;;;4.55;;
43626;SDS011;29217;52.586;13.442;2024-02-28T05:31:02;11.55;;;4.45;;
43626;SDS011;29217;52.586;13.442;2024-02-28T05:33:43;12.43;;;4.72;;
43626;SDS011;29217;52.586;13.442;2024-02-28T05:36:09;15.30;;;4.97;;
43626;SDS011;29217;52.586;13.442;2024-02-28T05:38:35;16.10;;;4.75;;
43626;SDS011;29217;52.586;13.442;2024-02-28T05:41:00;10.27;;;3.70;;
43626;SDS011;29217;52.586;13.442;2024-02-28T05:43:26;13.98;;;5.15;;
43626;SDS011;29217;52.586;13.442;2024-02-28T05:45:52;15.23;;;4.90;;
43626;SDS011;29217;52.586;13.442;2024-02-28T05:48:18;12.43;;;4.68;;
43626;SDS011;29217;52.586;13.442;2024-02-28T05:50:44;11.82;;;4.47;;
43626;SDS011;29217;52.586;13.442;2024-02-28T05:53:09;13.63;;;5.20;;
43626;SDS011;29217;52.586;13.442;2024-02-28T05:55:35;10.43;;;4.28;;
43626;SDS011;29217;52.586;13.442;2024-02-28T05:58:00;16.00;;;5.30;;
43626;SDS011;29217;52.586;13.442;2024-02-28T06:00:26;13.68;;;5.20;;
43626;SDS011;29217;52.586;13.442;2024-02-28T06:02:53;17.88;;;5.90;;
43626;SDS011;29217;52.586;13.442;2024-02-28T06:05:19;15.30;;;6.53;;
43626;SDS011;29217;52.586;13.442;2024-02-28T06:07:44;12.90;;;5.13;;
43626;SDS011;29217;52.586;13.442;2024-02-28T06:10:10;12.27;;;4.45;;
43626;SDS011;29217;52.586;13.442;2024-02-28T06:12:36;15.27;;;4.95;;
43626;SDS011;29217;52.586;13.442;2024-02-28T06:15:02;14.82;;;4.20;;
43626;SDS011;29217;52.586;13.442;2024-02-28T06:17:29;9.93;;;4.00;;
43626;SDS011;29217;52.586;13.442;2024-02-28T06:19:54;13.00;;;4.38;;
43626;SDS011;29217;52.586;13.442;2024-02-28T06:22:20;13.18;;;4.10;;
43626;SDS011;29217;52.586;13.442;2024-02-28T06:24:45;10.30;;;3.65;;
43626;SDS011;29217;52.586;13.442;2024-02-28T06:27:11;9.38;;;3.88;;
43626;SDS011;29217;52.586;13.442;2024-02-28T06:29:38;9.27;;;3.55;;
43626;SDS011;29217;52.586;13.442;2024-02-28T06:32:07;11.65;;;3.95;;
43626;SDS011;29217;52.586;13.442;2024-02-28T06:34:33;11.07;;;3.90;;
43626;SDS011;29217;52.586;13.442;2024-02-28T06:36:59;8.30;;;3.58;;
43626;SDS011;29217;52.586;13.442;2024-02-28T06:39:24;8.45;;;4.00;;
43626;SDS011;29217;52.586;13.442;2024-02-28T06:41:50;9.93;;;4.72;;
43626;SDS011;29217;52.586;13.442;2024-02-28T06:44:17;11.73;;;5.10;;
43626;SDS011;29217;52.586;13.442;2024-02-28T06:46:43;15.80;;;5.53;;
43626;SDS011;29217;52.586;13.442;2024-02-28T06:49:09;11.65;;;5.43;;
43626;SDS011;29217;52.586;13.442;2024-02-28T06:51:35;11.20;;;4.80;;
43626;SDS011;29217;52.586;13.442;2024-02-28T06:54:00;10.85;;;5.32;;
43626;SDS011;29217;52.586;13.442;2024-02-28T06:56:26;14.60;;;5.28;;
43626;SDS011;29217;52.586;13.442;2024-02-28T06:58:51;13.25;;;5.35;;
43626;SDS011;29217;52.586;13.442;2024-02-28T07:01:17;16.73;;;4.80;;
43626;SDS011;29217;52.586;13.442;2024-02-28T07:03:43;8.52;;;4.88;;
43626;SDS011;29217;52.586;13.442;2024-02-28T07:06:09;13.85;;;5.45;;
43626;SDS011;29217;52.586;13.442;2024-02-28T07:08:34;18.08;;;5.32;;
43626;SDS011;29217;52.586;13.442;2024-02-28T07:11:00;20.02;;;5.43;;
43626;SDS011;29217;52.586;13.442;2024-02-28T07:13:26;13.48;;;6.07;;
43626;SDS011;29217;52.586;13.442;2024-02-28T07:15:52;11.18;;;5.13;;
43626;SDS011;29217;52.586;13.442;2024-02-28T07:18:19;14.55;;;5.82;;
43626;SDS011;29217;52.586;13.442;2024-02-28T07:20:45;13.40;;;6.00;;
43626;SDS011;29217;52.586;13.442;2024-02-28T07:23:11;15.20;;;5.53;;
43626;SDS011;29217;52.586;13.442;2024-02-28T07:25:37;14.93;;;5.65;;
43626;SDS011;29217;52.586;13.442;2024-02-28T07:28:03;15.07;;;5.60;;
43626;SDS011;29217;52.586;13.442;2024-02-28T07:30:29;11.88;;;5.25;;
43626;SDS011;29217;52.586;13.442;2024-02-28T07:32:55;12.80;;;5.03;;
43626;SDS011;29217;52.586;13.442;2024-02-28T07:35:21;12.23;;;4.50;;
43626;SDS011;29217;52.586;13.442;2024-02-28T07:37:48;17.52;;;6.88;;
43626;SDS011;29217;52.586;13.442;2024-02-28T07:40:14;13.80;;;6.00;;
43626;SDS011;29217;52.586;13.442;2024-02-28T07:42:40;19.27;;;6.25;;
43626;SDS011;29217;52.586;13.442;2024-02-28T07:45:05;16.58;;;6.70;;
43626;SDS011;29217;52.586;13.442;2024-02-28T07:47:33;18.75;;;6.47;;
43626;SDS011;29217;52.586;13.442;2024-02-28T07:49:59;17.00;;;6.70;;
43626;SDS011;29217;52.586;13.442;2024-02-28T07:52:25;16.70;;;6.53;;
43626;SDS011;29217;52.586;13.442;2024-02-28T07:54:50;14.30;;;6.00;;
43626;SDS011;29217;52.586;13.442;2024-02-28T07:57:17;11.80;;;5.20;;
43626;SDS011;29217;52.586;13.442;2024-02-28T07:59:42;11.77;;;5.22;;
43626;SDS011;29217;52.586;13.442;2024-02-28T08:02:08;14.23;;;5.22;;
43626;SDS011;29217;52.586;13.442;2024-02-28T08:04:36;10.60;;;4.88;;
43626;SDS011;29217;52.586;13.442;2024-02-28T08:07:02;17.08;;;6.15;;
43626;SDS011;29217;52.586;13.442;2024-02-28T08:09:28;16.15;;;6.85;;
43626;SDS011;29217;52.586;13.442;2024-02-28T08:11:53;16.08;;;6.93;;
43626;SDS011;29217;52.586;13.442;2024-02-28T08:14:19;21.90;;;7.85;;
43626;SDS011;29217;52.586;13.442;2024-02-28T08:16:45;18.85;;;7.57;;
43626;SDS011;29217;52.586;13.442;2024-02-28T08:19:10;13.77;;;5.43;;
43626;SDS011;29217;52.586;13.442;2024-02-28T08:21:36;17.27;;;6.00;;
43626;SDS011;29217;52.586;13.442;2024-02-28T08:24:01;15.07;;;5.72;;
43626;SDS011;29217;52.586;13.442;2024-02-28T08:26:30;8.35;;;3.92;;
43626;SDS011;29217;52.586;13.442;2024-02-28T08:28:56;11.38;;;4.45;;
43626;SDS011;29217;52.586;13.442;2024-02-28T08:31:22;13.25;;;5.13;;
43626;SDS011;29217;52.586;13.442;2024-02-28T08:33:47;8.65;;;4.10;;
43626;SDS011;29217;52.586;13.442;2024-02-28T08:36:13;9.35;;;4.18;;
43626;SDS011;29217;52.586;13.442;2024-02-28T08:38:40;8.45;;;3.67;;
43626;SDS011;29217;52.586;13.442;2024-02-28T08:41:06;8.30;;;3.70;;
43626;SDS011;29217;52.586;13.442;2024-02-28T08:43:32;8.07;;;3.67;;
43626;SDS011;29217;52.586;13.442;2024-02-28T08:46:04;8.57;;;3.58;;
43626;SDS011;29217;52.586;13.442;2024-02-28T08:48:30;9.80;;;3.88;;
43626;SDS011;29217;52.586;13.442;2024-02-28T08:50:56;8.50;;;3.40;;
43626;SDS011;29217;52.586;13.442;2024-02-28T08:53:22;11.50;;;3.28;;
43626;SDS011;29217;52.586;13.442;2024-02-28T08:55:48;6.30;;;3.22;;
43626;SDS011;29217;52.586;13.442;2024-02-28T08:58:14;4.82;;;3.03;;
43626;SDS011;29217;52.586;13.442;2024-02-28T09:00:39;7.72;;;3.22;;
43626;SDS011;29217;52.586;13.442;2024-02-28T09:03:05;7.78;;;3.28;;
43626;SDS011;29217;52.586;13.442;2024-02-28T09:05:31;12.65;;;4.78;;
43626;SDS011;29217;52.586;13.442;2024-02-28T09:07:56;12.40;;;4.45;;
43626;SDS011;29217;52.586;13.442;2024-02-28T09:10:22;11.38;;;4.63;;
43626;SDS011;29217;52.586;13.442;2024-02-28T09:12:51;12.75;;;4.75;;
43626;SDS011;29217;52.586;13.442;2024-02-28T09:15:17;15.95;;;4.97;;
43626;SDS011;29217;52.586;13.442;2024-02-28T09:17:43;9.25;;;4.25;;
43626;SDS011;29217;52.586;13.442;2024-02-28T09:20:09;14.23;;;4.75;;
43626;SDS011;29217;52.586;13.442;2024-02-28T09:22:35;11.93;;;4.90;;
43626;SDS011;29217;52.586;13.442;2024-02-28T09:25:01;11.52;;;4.00;;
43626;SDS011;29217;52.586;13.442;2024-02-28T09:27:29;11.57;;;4.95;;
43626;SDS011;29217;52.586;13.442;2024-02-28T09:29:55;7.80;;;3.67;;
43626;SDS011;29217;52.586;13.442;2024-02-28T09:32:21;7.35;;;3.67;;
43626;SDS011;29217;52.586;13.442;2024-02-28T09:34:46;9.77;;;4.15;;
43626;SDS011;29217;52.586;13.442;2024-02-28T09:37:13;13.60;;;4.63;;
43626;SDS011;29217;52.586;13.442;2024-02-28T09:39:39;14.30;;;6.00;;
43626;SDS011;29217;52.586;13.442;2024-02-28T09:42:09;9.40;;;4.78;;
43626;SDS011;29217;52.586;13.442;2024-02-28T09:44:35;9.38;;;4.18;;
43626;SDS011;29217;52.586;13.442;2024-02-28T09:47:01;9.25;;;4.35;;
43626;SDS011;29217;52.586;13.442;2024-02-28T09:49:28;10.55;;;5.10;;
43626;SDS011;29217;52.586;13.442;2024-02-28T09:51:56;9.20;;;4.53;;
43626;SDS011;29217;52.586;13.442;2024-02-28T09:54:23;12.25;;;4.53;;
43626;SDS011;29217;52.586;13.442;2024-02-28T09:56:48;11.50;;;4.93;;
43626;SDS011;29217;52.586;13.442;2024-02-28T09:59:16;13.55;;;5.20;;
43626;SDS011;29217;52.586;13.442;2024-02-28T10:01:43;15.43;;;5.70;;
43626;SDS011;29217;52.586;13.442;2024-02-28T10:04:15;11.93;;;4.97;;
43626;SDS011;29217;52.586;13.442;2024-02-28T10:06:42;11.00;;;4.38;;
43626;SDS011;29217;52.586;13.442;2024-02-28T10:09:07;18.17;;;6.13;;
43626;SDS011;29217;52.586;13.442;2024-02-28T10:11:35;13.23;;;6.10;;
43626;SDS011;29217;52.586;13.442;2024-02-28T10:14:01;15.27;;;5.38;;
43626;SDS011;29217;52.586;13.442;2024-02-28T10:16:27;13.30;;;5.20;;
43626;SDS011;29217;52.586;13.442;2024-02-28T10:18:53;17.45;;;5.65;;
43626;SDS011;29217;52.586;13.442;2024-02-28T10:21:18;13.60;;;5.32;;
43626;SDS011;29217;52.586;13.442;2024-02-28T10:23:44;16.27;;;6.50;;
43626;SDS011;29217;52.586;13.442;2024-02-28T10:26:11;11.88;;;5.40;;
43626;SDS011;29217;52.586;13.442;2024-02-28T10:28:37;14.93;;;6.07;;
43626;SDS011;29217;52.586;13.442;2024-02-28T10:31:05;12.40;;;5.30;;
43626;SDS011;29217;52.586;13.442;2024-02-28T10:33:32;16.58;;;5.72;;
43626;SDS011;29217;52.586;13.442;2024-02-28T10:35:58;18.17;;;7.32;;
43626;SDS011;29217;52.586;13.442;2024-02-28T10:38:24;18.27;;;6.45;;
43626;SDS011;29217;52.586;13.442;2024-02-28T10:40:51;16.85;;;6.72;;
43626;SDS011;29217;52.586;13.442;2024-02-28T10:43:18;16.67;;;5.82;;
43626;SDS011;29217;52.586;13.442;2024-02-28T10:45:44;17.00;;;6.88;;
43626;SDS011;29217;52.586;13.442;2024-02-28T10:48:11;14.55;;;6.72;;
43626;SDS011;29217;52.586;13.442;2024-02-28T10:50:40;17.33;;;6.45;;
43626;SDS011;29217;52.586;13.442;2024-02-28T10:53:13;14.63;;;6.18;;
43626;SDS011;29217;52.586;13.442;2024-02-28T10:55:41;17.67;;;6.40;;
43626;SDS011;29217;52.586;13.442;2024-02-28T10:58:07;13.60;;;6.45;;
43626;SDS011;29217;52.586;13.442;2024-02-28T11:00:38;16.88;;;6.63;;
43626;SDS011;29217;52.586;13.442;2024-02-28T11:03:04;21.13;;;7.00;;
43626;SDS011;29217;52.586;13.442;2024-02-28T11:05:40;20.30;;;6.78;;
43626;SDS011;29217;52.586;13.442;2024-02-28T11:08:10;18.83;;;5.75;;
43626;SDS011;29217;52.586;13.442;2024-02-28T11:10:45;17.90;;;7.53;;
43626;SDS011;29217;52.586;13.442;2024-02-28T11:13:21;17.73;;;6.45;;
43626;SDS011;29217;52.586;13.442;2024-02-28T11:15:51;15.98;;;6.72;;
43626;SDS011;29217;52.586;13.442;2024-02-28T11:18:17;18.58;;;6.28;;
43626;SDS011;29217;52.586;13.442;2024-02-28T11:20:43;17.38;;;6.43;;
43626;SDS011;29217;52.586;13.442;2024-02-28T11:23:11;15.25;;;6.82;;
43626;SDS011;29217;52.586;13.442;2024-02-28T11:25:37;18.02;;;6.45;;
43626;SDS011;29217;52.586;13.442;2024-02-28T11:28:03;13.05;;;5.97;;
43626;SDS011;29217;52.586;13.442;2024-02-28T11:30:29;14.88;;;5.97;;
43626;SDS011;29217;52.586;13.442;2024-02-28T11:32:55;17.77;;;6.93;;
43626;SDS011;29217;52.586;13.442;2024-02-28T11:35:23;15.05;;;5.50;;
43626;SDS011;29217;52.586;13.442;2024-02-28T11:37:50;16.48;;;6.90;;
43626;SDS011;29217;52.586;13.442;2024-02-28T11:40:18;14.40;;;6.47;;
43626;SDS011;29217;52.586;13.442;2024-02-28T11:42:44;18.83;;;7.60;;
43626;SDS011;29217;52.586;13.442;2024-02-28T11:45:10;16.63;;;6.65;;
43626;SDS011;29217;52.586;13.442;2024-02-28T11:47:36;12.48;;;5.90;;
43626;SDS011;29217;52.586;13.442;2024-02-28T11:50:02;15.20;;;6.22;;
43626;SDS011;29217;52.586;13.442;2024-02-28T11:52:32;17.58;;;6.30;;
43626;SDS011;29217;52.586;13.442;2024-02-28T11:54:58;20.42;;;6.82;;
43626;SDS011;29217;52.586;13.442;2024-02-28T11:57:24;16.83;;;6.10;;
43626;SDS011;29217;52.586;13.442;2024-02-28T11:59:50;16.63;;;6.78;;
43626;SDS011;29217;52.586;13.442;2024-02-28T12:02:16;14.77;;;6.18;;
43626;SDS011;29217;52.586;13.442;2024-02-28T12:04:42;16.30;;;5.97;;
43626;SDS011;29217;52.586;13.442;2024-02-28T12:07:09;14.32;;;5.53;;
43626;SDS011;29217;52.586;13.442;2024-02-28T12:09:35;13.70;;;5.88;;
43626;SDS011;29217;52.586;13.442;2024-02-28T12:12:01;17.55;;;5.80;;
43626;SDS011;29217;52.586;13.442;2024-02-28T12:14:31;17.75;;;6.18;;
43626;SDS011;29217;52.586;13.442;2024-02-28T12:16:57;16.23;;;5.78;;
43626;SDS011;29217;52.586;13.442;2024-02-28T12:19:23;11.45;;;4.68;;
43626;SDS011;29217;52.586;13.442;2024-02-28T12:21:49;11.32;;;4.75;;
43626;SDS011;29217;52.586;13.442;2024-02-28T12:24:15;13.80;;;5.80;;
43626;SDS011;29217;52.586;13.442;2024-02-28T12:26:41;15.90;;;5.82;;
43626;SDS011;29217;52.586;13.442;2024-02-28T12:29:07;13.38;;;4.60;;
43626;SDS011;29217;52.586;13.442;2024-02-28T12:31:34;14.77;;;5.80;;
43626;SDS011;29217;52.586;13.442;2024-02-28T12:34:00;11.45;;;4.80;;
43626;SDS011;29217;52.586;13.442;2024-02-28T12:36:26;9.60;;;4.82;;
43626;SDS011;29217;52.586;13.442;2024-02-28T12:38:51;11.95;;;5.28;;
43626;SDS011;29217;52.586;13.442;2024-02-28T12:41:17;11.43;;;4.88;;
43626;SDS011;29217;52.586;13.442;2024-02-28T12:43:42;12.13;;;5.13;;
43626;SDS011;29217;52.586;13.442;2024-02-28T12:46:08;11.77;;;5.45;;
43626;SDS011;29217;52.586;13.442;2024-02-28T12:48:37;10.27;;;4.65;;
43626;SDS011;29217;52.586;13.442;2024-02-28T12:51:04;9.05;;;4.28;;
43626;SDS011;29217;52.586;13.442;2024-02-28T12:53:30;9.68;;;4.70;;
43626;SDS011;29217;52.586;13.442;2024-02-28T12:55:57;14.40;;;4.70;;
43626;SDS011;29217;52.586;13.442;2024-02-28T12:58:22;11.18;;;5.35;;
43626;SDS011;29217;52.586;13.442;2024-02-28T13:00:51;9.90;;;5.20;;
43626;SDS011;29217;52.586;13.442;2024-02-28T13:03:17;11.65;;;4.70;;
43626;SDS011;29217;52.586;13.442;2024-02-28T13:05:43;12.23;;;4.60;;
43626;SDS011;29217;52.586;13.442;2024-02-28T13:08:09;12.55;;;5.00;;
43626;SDS011;29217;52.586;13.442;2024-02-28T13:10:35;11.32;;;5.18;;
43626;SDS011;29217;52.586;13.442;2024-02-28T13:13:04;11.30;;;5.07;;
43626;SDS011;29217;52.586;13.442;2024-02-28T13:15:31;15.15;;;5.47;;
43626;SDS011;29217;52.586;13.442;2024-02-28T13:17:57;11.65;;;4.85;;
43626;SDS011;29217;52.586;13.442;2024-02-28T13:20:22;15.13;;;4.68;;
43626;SDS011;29217;52.586;13.442;2024-02-28T13:22:48;13.02;;;4.65;;
43626;SDS011;29217;52.586;13.442;2024-02-28T13:25:14;11.07;;;4.32;;
43626;SDS011;29217;52.586;13.442;2024-02-28T13:27:40;9.35;;;4.80;;
43626;SDS011;29217;52.586;13.442;2024-02-28T13:30:06;16.88;;;6.25;;
43626;SDS011;29217;52.586;13.442;2024-02-28T13:32:32;11.40;;;5.20;;
43626;SDS011;29217;52.586;13.442;2024-02-28T13:34:58;14.00;;;4.97;;
43626;SDS011;29217;52.586;13.442;2024-02-28T13:37:24;9.70;;;4.47;;
43626;SDS011;29217;52.586;13.442;2024-02-28T13:39:50;9.73;;;4.90;;
43626;SDS011;29217;52.586;13.442;2024-02-28T13:42:17;10.60;;;4.68;;
43626;SDS011;29217;52.586;13.442;2024-02-28T13:44:45;11.20;;;4.57;;
43626;SDS011;29217;52.586;13.442;2024-02-28T13:47:11;8.93;;;4.22;;
43626;SDS011;29217;52.586;13.442;2024-02-28T13:49:38;12.15;;;4.45;;
43626;SDS011;29217;52.586;13.442;2024-02-28T13:52:04;10.32;;;4.57;;
43626;SDS011;29217;52.586;13.442;2024-02-28T13:54:30;11.93;;;4.80;;
43626;SDS011;29217;52.586;13.442;2024-02-28T13:56:56;11.27;;;4.63;;
43626;SDS011;29217;52.586;13.442;2024-02-28T13:59:22;10.18;;;4.93;;
43626;SDS011;29217;52.586;13.442;2024-02-28T14:01:48;10.00;;;4.20;;
43626;SDS011;29217;52.586;13.442;2024-02-28T14:04:14;9.73;;;4.45;;
43626;SDS011;29217;52.586;13.442;2024-02-28T14:06:40;12.57;;;4.75;;
43626;SDS011;29217;52.586;13.442;2024-02-28T14:09:05;12.65;;;5.05;;
43626;SDS011;29217;52.586;13.442;2024-02-28T14:11:31;10.75;;;4.88;;
43626;SDS011;29217;52.586;13.442;2024-02-28T14:13:57;10.68;;;4.45;;
43626;SDS011;29217;52.586;13.442;2024-02-28T14:16:23;11.55;;;4.85;;
43626;SDS011;29217;52.586;13.442;2024-02-28T14:18:49;11.35;;;4.72;;